sensor_id;sensor_type;location;lat;lon;timestamp;P1;durP1;ratioP1;P2;durP2;ratioP2
32705;SDS011;19094;50.972;3.538;2023-02-28T00:00:06;12.43;;;6.55;;
32705;SDS011;19094;50.972;3.538;2023-02-28T00:02:35;13.82;;;6.60;;
32705;SDS011;19094;50.972;3.538;2023-02-28T00:05:04;14.13;;;6.85;;
32705;SDS011;19094;50.972;3.538;2023-02-28T00:07:31;13.43;;;7.88;;
32705;SDS011;19094;50.972;3.538;2023-02-28T00:09:57;17.50;;;7.60;;
32705;SDS011;19094;50.972;3.538;2023-02-28T00:12:23;17.08;;;7.90;;
32705;SDS011;19094;50.972;3.538;2023-02-28T00:14:49;17.75;;;8.23;;
32705;SDS011;19094;50.972;3.538;2023-02-28T00:17:15;41.20;;;9.05;;
32705;SDS011;19094;50.972;3.538;2023-02-28T00:19:49;17.92;;;7.68;;
32705;SDS011;19094;50.972;3.538;2023-02-28T00:22:19;14.15;;;8.02;;
32705;SDS011;19094;50.972;3.538;2023-02-28T00:24:45;13.20;;;7.55;;
32705;SDS011;19094;50.972;3.538;2023-02-28T00:27:12;12.45;;;7.60;;
32705;SDS011;19094;50.972;3.538;2023-02-28T00:29:39;15.30;;;7.38;;
32705;SDS011;19094;50.972;3.538;2023-02-28T00:32:05;15.25;;;7.55;;
32705;SDS011;19094;50.972;3.538;2023-02-28T00:34:31;19.10;;;7.93;;
32705;SDS011;19094;50.972;3.538;2023-02-28T00:37:02;15.98;;;7.90;;
32705;SDS011;19094;50.972;3.538;2023-02-28T00:39:29;17.85;;;7.82;;
32705;SDS011;19094;50.972;3.538;2023-02-28T00:41:55;18.23;;;9.02;;
32705;SDS011;19094;50.972;3.538;2023-02-28T00:44:20;19.85;;;7.68;;
32705;SDS011;19094;50.972;3.538;2023-02-28T00:46:46;17.23;;;8.38;;
32705;SDS011;19094;50.972;3.538;2023-02-28T00:49:12;15.82;;;7.20;;
32705;SDS011;19094;50.972;3.538;2023-02-28T00:51:38;14.20;;;7.03;;
32705;SDS011;19094;50.972;3.538;2023-02-28T00:54:03;14.18;;;7.60;;
32705;SDS011;19094;50.972;3.538;2023-02-28T00:56:29;13.52;;;7.97;;
32705;SDS011;19094;50.972;3.538;2023-02-28T00:58:55;16.90;;;7.50;;
32705;SDS011;19094;50.972;3.538;2023-02-28T01:01:20;12.05;;;7.38;;
32705;SDS011;19094;50.972;3.538;2023-02-28T01:03:46;19.98;;;8.50;;
32705;SDS011;19094;50.972;3.538;2023-02-28T01:06:11;13.00;;;7.35;;
32705;SDS011;19094;50.972;3.538;2023-02-28T01:08:37;12.65;;;7.45;;
32705;SDS011;19094;50.972;3.538;2023-02-28T01:11:07;13.73;;;7.55;;
32705;SDS011;19094;50.972;3.538;2023-02-28T01:13:33;13.23;;;6.97;;
32705;SDS011;19094;50.972;3.538;2023-02-28T01:15:59;14.27;;;7.63;;
32705;SDS011;19094;50.972;3.538;2023-02-28T01:18:25;12.10;;;7.47;;
32705;SDS011;19094;50.972;3.538;2023-02-28T01:20:50;17.90;;;8.52;;
32705;SDS011;19094;50.972;3.538;2023-02-28T01:23:18;14.70;;;7.80;;
32705;SDS011;19094;50.972;3.538;2023-02-28T01:25:45;13.07;;;7.55;;
32705;SDS011;19094;50.972;3.538;2023-02-28T01:28:10;14.98;;;7.90;;
32705;SDS011;19094;50.972;3.538;2023-02-28T01:30:36;13.30;;;7.68;;
32705;SDS011;19094;50.972;3.538;2023-02-28T01:33:02;12.82;;;7.68;;
32705;SDS011;19094;50.972;3.538;2023-02-28T01:35:27;14.95;;;7.78;;
32705;SDS011;19094;50.972;3.538;2023-02-28T01:37:53;16.52;;;7.40;;
32705;SDS011;19094;50.972;3.538;2023-02-28T01:40:19;14.27;;;7.68;;
32705;SDS011;19094;50.972;3.538;2023-02-28T01:42:45;13.90;;;8.00;;
32705;SDS011;19094;50.972;3.538;2023-02-28T01:45:27;19.98;;;7.93;;
32705;SDS011;19094;50.972;3.538;2023-02-28T01:47:55;15.50;;;8.35;;
32705;SDS011;19094;50.972;3.538;2023-02-28T01:50:29;14.50;;;8.43;;
32705;SDS011;19094;50.972;3.538;2023-02-28T01:53:00;14.82;;;8.13;;
32705;SDS011;19094;50.972;3.538;2023-02-28T01:55:29;13.57;;;7.95;;
32705;SDS011;19094;50.972;3.538;2023-02-28T01:57:56;12.95;;;7.78;;
32705;SDS011;19094;50.972;3.538;2023-02-28T02:00:25;17.63;;;7.93;;
32705;SDS011;19094;50.972;3.538;2023-02-28T02:02:53;14.38;;;7.70;;
32705;SDS011;19094;50.972;3.538;2023-02-28T02:05:23;16.80;;;8.93;;
32705;SDS011;19094;50.972;3.538;2023-02-28T02:07:52;11.55;;;7.47;;
32705;SDS011;19094;50.972;3.538;2023-02-28T02:10:24;19.70;;;8.10;;
32705;SDS011;19094;50.972;3.538;2023-02-28T02:16:10;13.70;;;8.18;;
32705;SDS011;19094;50.972;3.538;2023-02-28T02:19:08;15.00;;;8.00;;
32705;SDS011;19094;50.972;3.538;2023-02-28T02:24:31;18.63;;;8.13;;
32705;SDS011;19094;50.972;3.538;2023-02-28T02:27:25;15.10;;;8.35;;
32705;SDS011;19094;50.972;3.538;2023-02-28T02:30:14;13.93;;;7.72;;
32705;SDS011;19094;50.972;3.538;2023-02-28T02:33:29;14.00;;;7.60;;
32705;SDS011;19094;50.972;3.538;2023-02-28T02:36:19;14.40;;;8.20;;
32705;SDS011;19094;50.972;3.538;2023-02-28T02:39:06;18.35;;;7.82;;
32705;SDS011;19094;50.972;3.538;2023-02-28T02:44:07;18.30;;;8.38;;
32705;SDS011;19094;50.972;3.538;2023-02-28T02:47:12;14.30;;;8.32;;
32705;SDS011;19094;50.972;3.538;2023-02-28T02:49:42;14.30;;;8.65;;
32705;SDS011;19094;50.972;3.538;2023-02-28T02:52:12;14.77;;;8.55;;
32705;SDS011;19094;50.972;3.538;2023-02-28T02:54:44;15.68;;;8.40;;
32705;SDS011;19094;50.972;3.538;2023-02-28T02:57:45;16.73;;;9.20;;
32705;SDS011;19094;50.972;3.538;2023-02-28T03:00:16;17.30;;;8.77;;
32705;SDS011;19094;50.972;3.538;2023-02-28T03:02:45;14.27;;;8.05;;
32705;SDS011;19094;50.972;3.538;2023-02-28T03:05:25;15.45;;;8.38;;
32705;SDS011;19094;50.972;3.538;2023-02-28T03:07:54;15.15;;;8.75;;
32705;SDS011;19094;50.972;3.538;2023-02-28T03:12:53;18.23;;;8.82;;
32705;SDS011;19094;50.972;3.538;2023-02-28T03:15:57;13.98;;;8.23;;
32705;SDS011;19094;50.972;3.538;2023-02-28T03:18:37;15.55;;;9.57;;
32705;SDS011;19094;50.972;3.538;2023-02-28T03:27:29;18.80;;;8.57;;
32705;SDS011;19094;50.972;3.538;2023-02-28T03:30:06;14.15;;;8.50;;
32705;SDS011;19094;50.972;3.538;2023-02-28T03:35:40;19.13;;;8.52;;
32705;SDS011;19094;50.972;3.538;2023-02-28T03:38:18;15.60;;;8.75;;
32705;SDS011;19094;50.972;3.538;2023-02-28T03:41:14;15.75;;;8.93;;
32705;SDS011;19094;50.972;3.538;2023-02-28T03:43:42;13.55;;;8.27;;
32705;SDS011;19094;50.972;3.538;2023-02-28T03:46:18;16.15;;;8.45;;
32705;SDS011;19094;50.972;3.538;2023-02-28T03:48:58;15.25;;;8.38;;
32705;SDS011;19094;50.972;3.538;2023-02-28T03:51:39;17.65;;;9.23;;
32705;SDS011;19094;50.972;3.538;2023-02-28T03:54:08;15.77;;;9.30;;
32705;SDS011;19094;50.972;3.538;2023-02-28T03:56:38;15.45;;;8.60;;
32705;SDS011;19094;50.972;3.538;2023-02-28T03:59:13;13.48;;;8.18;;
32705;SDS011;19094;50.972;3.538;2023-02-28T04:01:45;18.73;;;8.90;;
32705;SDS011;19094;50.972;3.538;2023-02-28T04:04:13;23.20;;;8.80;;
32705;SDS011;19094;50.972;3.538;2023-02-28T04:06:39;15.38;;;9.23;;
32705;SDS011;19094;50.972;3.538;2023-02-28T04:09:06;19.05;;;8.65;;
32705;SDS011;19094;50.972;3.538;2023-02-28T04:14:00;15.55;;;8.35;;
32705;SDS011;19094;50.972;3.538;2023-02-28T04:16:27;16.70;;;9.02;;
32705;SDS011;19094;50.972;3.538;2023-02-28T04:18:53;18.95;;;9.48;;
32705;SDS011;19094;50.972;3.538;2023-02-28T04:21:26;17.10;;;9.48;;
32705;SDS011;19094;50.972;3.538;2023-02-28T04:23:53;17.27;;;9.40;;
32705;SDS011;19094;50.972;3.538;2023-02-28T04:26:19;19.30;;;9.48;;
32705;SDS011;19094;50.972;3.538;2023-02-28T04:28:44;15.60;;;8.32;;
32705;SDS011;19094;50.972;3.538;2023-02-28T04:31:10;17.27;;;10.10;;
32705;SDS011;19094;50.972;3.538;2023-02-28T04:33:36;15.85;;;8.75;;
32705;SDS011;19094;50.972;3.538;2023-02-28T04:36:02;14.52;;;8.55;;
32705;SDS011;19094;50.972;3.538;2023-02-28T04:38:33;17.67;;;9.27;;
32705;SDS011;19094;50.972;3.538;2023-02-28T04:41:04;23.42;;;9.02;;
32705;SDS011;19094;50.972;3.538;2023-02-28T04:43:30;17.88;;;8.20;;
32705;SDS011;19094;50.972;3.538;2023-02-28T04:45:57;15.57;;;8.80;;
32705;SDS011;19094;50.972;3.538;2023-02-28T04:48:26;16.70;;;8.70;;
32705;SDS011;19094;50.972;3.538;2023-02-28T04:50:53;17.05;;;8.43;;
32705;SDS011;19094;50.972;3.538;2023-02-28T04:53:18;18.38;;;8.75;;
32705;SDS011;19094;50.972;3.538;2023-02-28T04:55:44;13.50;;;8.18;;
32705;SDS011;19094;50.972;3.538;2023-02-28T04:58:11;18.70;;;9.00;;
32705;SDS011;19094;50.972;3.538;2023-02-28T05:00:37;17.58;;;8.32;;
32705;SDS011;19094;50.972;3.538;2023-02-28T05:03:03;13.77;;;8.10;;
32705;SDS011;19094;50.972;3.538;2023-02-28T05:05:29;20.27;;;9.60;;
32705;SDS011;19094;50.972;3.538;2023-02-28T05:07:54;17.73;;;8.82;;
32705;SDS011;19094;50.972;3.538;2023-02-28T05:10:21;21.48;;;9.35;;
32705;SDS011;19094;50.972;3.538;2023-02-28T05:12:47;17.70;;;8.73;;
32705;SDS011;19094;50.972;3.538;2023-02-28T05:15:14;19.13;;;8.18;;
32705;SDS011;19094;50.972;3.538;2023-02-28T05:17:41;20.15;;;8.65;;
32705;SDS011;19094;50.972;3.538;2023-02-28T05:20:07;20.42;;;8.57;;
32705;SDS011;19094;50.972;3.538;2023-02-28T05:22:35;15.15;;;8.60;;
32705;SDS011;19094;50.972;3.538;2023-02-28T05:25:02;22.25;;;8.30;;
32705;SDS011;19094;50.972;3.538;2023-02-28T05:27:29;17.95;;;8.80;;
32705;SDS011;19094;50.972;3.538;2023-02-28T05:29:55;17.88;;;9.00;;
32705;SDS011;19094;50.972;3.538;2023-02-28T05:32:21;18.55;;;9.23;;
32705;SDS011;19094;50.972;3.538;2023-02-28T05:34:47;20.95;;;9.85;;
32705;SDS011;19094;50.972;3.538;2023-02-28T05:37:13;16.45;;;9.20;;
32705;SDS011;19094;50.972;3.538;2023-02-28T05:39:40;18.95;;;10.02;;
32705;SDS011;19094;50.972;3.538;2023-02-28T05:42:07;15.63;;;8.70;;
32705;SDS011;19094;50.972;3.538;2023-02-28T05:44:32;17.65;;;8.52;;
32705;SDS011;19094;50.972;3.538;2023-02-28T05:46:58;15.60;;;8.43;;
32705;SDS011;19094;50.972;3.538;2023-02-28T05:49:24;20.10;;;8.60;;
32705;SDS011;19094;50.972;3.538;2023-02-28T05:51:50;12.98;;;8.20;;
32705;SDS011;19094;50.972;3.538;2023-02-28T05:54:15;17.42;;;9.13;;
32705;SDS011;19094;50.972;3.538;2023-02-28T05:56:41;16.48;;;9.25;;
32705;SDS011;19094;50.972;3.538;2023-02-28T05:59:10;15.77;;;9.23;;
32705;SDS011;19094;50.972;3.538;2023-02-28T06:04:05;21.23;;;10.45;;
32705;SDS011;19094;50.972;3.538;2023-02-28T06:06:32;20.33;;;8.82;;
32705;SDS011;19094;50.972;3.538;2023-02-28T06:09:02;17.15;;;9.10;;
32705;SDS011;19094;50.972;3.538;2023-02-28T06:11:29;17.50;;;8.82;;
32705;SDS011;19094;50.972;3.538;2023-02-28T06:13:55;15.60;;;9.05;;
32705;SDS011;19094;50.972;3.538;2023-02-28T06:16:22;18.45;;;9.50;;
32705;SDS011;19094;50.972;3.538;2023-02-28T06:18:49;23.77;;;9.63;;
32705;SDS011;19094;50.972;3.538;2023-02-28T06:21:14;18.80;;;9.43;;
32705;SDS011;19094;50.972;3.538;2023-02-28T06:23:40;21.35;;;10.15;;
32705;SDS011;19094;50.972;3.538;2023-02-28T06:26:06;20.52;;;10.20;;
32705;SDS011;19094;50.972;3.538;2023-02-28T06:28:31;17.73;;;9.27;;
32705;SDS011;19094;50.972;3.538;2023-02-28T06:30:57;20.48;;;9.30;;
32705;SDS011;19094;50.972;3.538;2023-02-28T06:33:23;19.40;;;9.02;;
32705;SDS011;19094;50.972;3.538;2023-02-28T06:35:52;21.40;;;9.32;;
32705;SDS011;19094;50.972;3.538;2023-02-28T06:38:18;21.30;;;10.35;;
32705;SDS011;19094;50.972;3.538;2023-02-28T06:40:44;63.08;;;38.05;;
32705;SDS011;19094;50.972;3.538;2023-02-28T06:43:16;19.73;;;10.20;;
32705;SDS011;19094;50.972;3.538;2023-02-28T06:45:42;21.67;;;9.77;;
32705;SDS011;19094;50.972;3.538;2023-02-28T06:48:09;17.52;;;9.00;;
32705;SDS011;19094;50.972;3.538;2023-02-28T06:50:35;15.82;;;8.50;;
32705;SDS011;19094;50.972;3.538;2023-02-28T06:53:01;19.73;;;9.40;;
32705;SDS011;19094;50.972;3.538;2023-02-28T06:55:26;24.75;;;9.55;;
32705;SDS011;19094;50.972;3.538;2023-02-28T06:57:52;19.23;;;9.40;;
32705;SDS011;19094;50.972;3.538;2023-02-28T07:00:19;27.80;;;9.90;;
32705;SDS011;19094;50.972;3.538;2023-02-28T07:02:46;26.75;;;9.18;;
32705;SDS011;19094;50.972;3.538;2023-02-28T07:05:12;19.13;;;8.95;;
32705;SDS011;19094;50.972;3.538;2023-02-28T07:07:38;20.77;;;9.82;;
32705;SDS011;19094;50.972;3.538;2023-02-28T07:10:08;18.95;;;8.88;;
32705;SDS011;19094;50.972;3.538;2023-02-28T07:12:36;19.23;;;9.63;;
32705;SDS011;19094;50.972;3.538;2023-02-28T07:15:02;25.95;;;10.82;;
32705;SDS011;19094;50.972;3.538;2023-02-28T07:17:29;21.40;;;9.80;;
32705;SDS011;19094;50.972;3.538;2023-02-28T07:19:54;26.38;;;11.88;;
32705;SDS011;19094;50.972;3.538;2023-02-28T07:22:21;31.30;;;9.65;;
32705;SDS011;19094;50.972;3.538;2023-02-28T07:24:47;32.10;;;10.05;;
32705;SDS011;19094;50.972;3.538;2023-02-28T07:27:13;32.10;;;9.95;;
32705;SDS011;19094;50.972;3.538;2023-02-28T07:29:48;18.15;;;9.13;;
32705;SDS011;19094;50.972;3.538;2023-02-28T07:32:14;17.40;;;9.20;;
32705;SDS011;19094;50.972;3.538;2023-02-28T07:34:40;18.77;;;9.02;;
32705;SDS011;19094;50.972;3.538;2023-02-28T07:37:06;19.95;;;9.15;;
32705;SDS011;19094;50.972;3.538;2023-02-28T07:39:31;26.70;;;9.90;;
32705;SDS011;19094;50.972;3.538;2023-02-28T07:41:57;16.63;;;8.82;;
32705;SDS011;19094;50.972;3.538;2023-02-28T07:44:24;22.92;;;8.65;;
32705;SDS011;19094;50.972;3.538;2023-02-28T07:46:50;15.10;;;6.88;;
32705;SDS011;19094;50.972;3.538;2023-02-28T07:49:18;26.33;;;6.45;;
32705;SDS011;19094;50.972;3.538;2023-02-28T07:51:43;10.55;;;5.75;;
32705;SDS011;19094;50.972;3.538;2023-02-28T07:54:09;13.48;;;6.22;;
32705;SDS011;19094;50.972;3.538;2023-02-28T07:56:35;15.50;;;5.68;;
32705;SDS011;19094;50.972;3.538;2023-02-28T07:59:00;18.30;;;7.03;;
32705;SDS011;19094;50.972;3.538;2023-02-28T08:01:27;17.80;;;7.10;;
32705;SDS011;19094;50.972;3.538;2023-02-28T08:03:52;15.20;;;6.35;;
32705;SDS011;19094;50.972;3.538;2023-02-28T08:06:21;18.30;;;6.38;;
32705;SDS011;19094;50.972;3.538;2023-02-28T08:08:47;12.75;;;6.28;;
32705;SDS011;19094;50.972;3.538;2023-02-28T08:11:13;16.65;;;5.57;;
32705;SDS011;19094;50.972;3.538;2023-02-28T08:13:40;15.85;;;6.55;;
32705;SDS011;19094;50.972;3.538;2023-02-28T08:16:07;19.38;;;7.28;;
32705;SDS011;19094;50.972;3.538;2023-02-28T08:18:33;14.45;;;6.10;;
32705;SDS011;19094;50.972;3.538;2023-02-28T08:20:58;12.43;;;6.20;;
32705;SDS011;19094;50.972;3.538;2023-02-28T08:23:24;12.43;;;5.78;;
32705;SDS011;19094;50.972;3.538;2023-02-28T08:25:54;14.43;;;6.05;;
32705;SDS011;19094;50.972;3.538;2023-02-28T08:28:20;21.05;;;8.45;;
32705;SDS011;19094;50.972;3.538;2023-02-28T08:30:46;8.93;;;4.63;;
32705;SDS011;19094;50.972;3.538;2023-02-28T08:33:12;10.90;;;4.65;;
32705;SDS011;19094;50.972;3.538;2023-02-28T08:35:38;10.57;;;4.53;;
32705;SDS011;19094;50.972;3.538;2023-02-28T08:38:03;17.00;;;6.55;;
32705;SDS011;19094;50.972;3.538;2023-02-28T08:40:29;11.45;;;4.88;;
32705;SDS011;19094;50.972;3.538;2023-02-28T08:42:55;13.45;;;5.70;;
32705;SDS011;19094;50.972;3.538;2023-02-28T08:45:21;12.93;;;5.35;;
32705;SDS011;19094;50.972;3.538;2023-02-28T08:47:48;10.70;;;4.82;;
32705;SDS011;19094;50.972;3.538;2023-02-28T08:50:13;23.30;;;6.60;;
32705;SDS011;19094;50.972;3.538;2023-02-28T08:52:41;12.20;;;5.18;;
32705;SDS011;19094;50.972;3.538;2023-02-28T08:55:08;9.40;;;4.25;;
32705;SDS011;19094;50.972;3.538;2023-02-28T08:57:34;10.75;;;5.60;;
32705;SDS011;19094;50.972;3.538;2023-02-28T09:00:00;12.00;;;5.05;;
32705;SDS011;19094;50.972;3.538;2023-02-28T09:02:29;9.88;;;4.95;;
32705;SDS011;19094;50.972;3.538;2023-02-28T09:04:56;12.95;;;5.05;;
32705;SDS011;19094;50.972;3.538;2023-02-28T09:07:23;9.65;;;4.65;;
32705;SDS011;19094;50.972;3.538;2023-02-28T09:09:49;13.40;;;4.95;;
32705;SDS011;19094;50.972;3.538;2023-02-28T09:12:26;11.60;;;5.03;;
32705;SDS011;19094;50.972;3.538;2023-02-28T09:14:52;10.10;;;5.43;;
32705;SDS011;19094;50.972;3.538;2023-02-28T09:17:18;10.80;;;4.70;;
32705;SDS011;19094;50.972;3.538;2023-02-28T09:19:44;13.45;;;5.43;;
32705;SDS011;19094;50.972;3.538;2023-02-28T09:22:10;10.55;;;5.88;;
32705;SDS011;19094;50.972;3.538;2023-02-28T09:24:37;9.73;;;5.00;;
32705;SDS011;19094;50.972;3.538;2023-02-28T09:27:03;12.40;;;5.47;;
32705;SDS011;19094;50.972;3.538;2023-02-28T09:29:29;10.90;;;5.13;;
32705;SDS011;19094;50.972;3.538;2023-02-28T09:31:59;11.15;;;5.40;;
32705;SDS011;19094;50.972;3.538;2023-02-28T09:34:28;12.75;;;4.95;;
32705;SDS011;19094;50.972;3.538;2023-02-28T09:36:55;10.93;;;5.55;;
32705;SDS011;19094;50.972;3.538;2023-02-28T09:39:22;13.63;;;4.70;;
32705;SDS011;19094;50.972;3.538;2023-02-28T09:41:49;7.50;;;4.22;;
32705;SDS011;19094;50.972;3.538;2023-02-28T09:46:54;9.50;;;4.55;;
32705;SDS011;19094;50.972;3.538;2023-02-28T09:49:39;12.77;;;4.80;;
32705;SDS011;19094;50.972;3.538;2023-02-28T09:52:11;10.02;;;4.10;;
32705;SDS011;19094;50.972;3.538;2023-02-28T09:54:44;10.65;;;4.30;;
32705;SDS011;19094;50.972;3.538;2023-02-28T10:05:34;12.55;;;3.90;;
32705;SDS011;19094;50.972;3.538;2023-02-28T10:08:27;6.57;;;3.72;;
32705;SDS011;19094;50.972;3.538;2023-02-28T10:11:11;8.65;;;4.05;;
32705;SDS011;19094;50.972;3.538;2023-02-28T10:13:51;14.57;;;5.78;;
32705;SDS011;19094;50.972;3.538;2023-02-28T10:19:10;9.73;;;4.15;;
32705;SDS011;19094;50.972;3.538;2023-02-28T10:22:05;10.10;;;4.38;;
32705;SDS011;19094;50.972;3.538;2023-02-28T10:24:39;9.45;;;4.47;;
32705;SDS011;19094;50.972;3.538;2023-02-28T10:27:20;6.28;;;3.58;;
32705;SDS011;19094;50.972;3.538;2023-02-28T10:29:51;10.57;;;3.85;;
32705;SDS011;19094;50.972;3.538;2023-02-28T10:32:20;19.08;;;5.32;;
32705;SDS011;19094;50.972;3.538;2023-02-28T10:35:15;10.18;;;3.50;;
32705;SDS011;19094;50.972;3.538;2023-02-28T10:37:44;36.33;;;5.28;;
32705;SDS011;19094;50.972;3.538;2023-02-28T10:45:29;7.57;;;3.90;;
32705;SDS011;19094;50.972;3.538;2023-02-28T10:50:51;9.73;;;3.88;;
32705;SDS011;19094;50.972;3.538;2023-02-28T10:56:05;5.38;;;3.30;;
32705;SDS011;19094;50.972;3.538;2023-02-28T11:01:34;12.93;;;4.00;;
32705;SDS011;19094;50.972;3.538;2023-02-28T11:04:02;11.40;;;3.63;;
32705;SDS011;19094;50.972;3.538;2023-02-28T11:06:32;13.50;;;3.63;;
32705;SDS011;19094;50.972;3.538;2023-02-28T11:14:49;6.25;;;4.10;;
32705;SDS011;19094;50.972;3.538;2023-02-28T11:17:26;7.10;;;3.30;;
32705;SDS011;19094;50.972;3.538;2023-02-28T11:19:55;8.00;;;4.00;;
32705;SDS011;19094;50.972;3.538;2023-02-28T11:22:25;9.50;;;3.33;;
32705;SDS011;19094;50.972;3.538;2023-02-28T11:24:57;8.05;;;3.70;;
32705;SDS011;19094;50.972;3.538;2023-02-28T11:29:55;6.80;;;3.20;;
32705;SDS011;19094;50.972;3.538;2023-02-28T11:32:22;4.68;;;3.30;;
32705;SDS011;19094;50.972;3.538;2023-02-28T11:37:37;8.73;;;3.10;;
32705;SDS011;19094;50.972;3.538;2023-02-28T11:40:16;6.15;;;2.90;;
32705;SDS011;19094;50.972;3.538;2023-02-28T11:45:37;8.33;;;3.37;;
32705;SDS011;19094;50.972;3.538;2023-02-28T11:48:30;14.02;;;3.72;;
32705;SDS011;19094;50.972;3.538;2023-02-28T11:56:55;7.60;;;3.28;;
32705;SDS011;19094;50.972;3.538;2023-02-28T12:02:25;12.57;;;3.35;;
32705;SDS011;19094;50.972;3.538;2023-02-28T12:07:54;5.15;;;2.90;;
32705;SDS011;19094;50.972;3.538;2023-02-28T12:10:56;9.82;;;3.67;;
32705;SDS011;19094;50.972;3.538;2023-02-28T12:13:48;11.93;;;3.75;;
32705;SDS011;19094;50.972;3.538;2023-02-28T12:19:25;5.20;;;3.03;;
32705;SDS011;19094;50.972;3.538;2023-02-28T12:24:43;10.18;;;3.30;;
32705;SDS011;19094;50.972;3.538;2023-02-28T12:27:19;7.82;;;2.83;;
32705;SDS011;19094;50.972;3.538;2023-02-28T12:29:50;19.42;;;3.33;;
32705;SDS011;19094;50.972;3.538;2023-02-28T12:32:39;5.35;;;2.63;;
32705;SDS011;19094;50.972;3.538;2023-02-28T12:40:28;5.55;;;2.63;;
32705;SDS011;19094;50.972;3.538;2023-02-28T12:43:04;4.05;;;2.72;;
32705;SDS011;19094;50.972;3.538;2023-02-28T12:48:31;6.07;;;3.10;;
32705;SDS011;19094;50.972;3.538;2023-02-28T12:51:05;5.60;;;2.80;;
32705;SDS011;19094;50.972;3.538;2023-02-28T12:56:47;8.02;;;2.97;;
32705;SDS011;19094;50.972;3.538;2023-02-28T13:10:41;4.03;;;2.50;;
32705;SDS011;19094;50.972;3.538;2023-02-28T13:13:19;8.38;;;2.92;;
32705;SDS011;19094;50.972;3.538;2023-02-28T13:16:00;6.53;;;3.05;;
32705;SDS011;19094;50.972;3.538;2023-02-28T13:18:35;6.10;;;2.78;;
32705;SDS011;19094;50.972;3.538;2023-02-28T13:26:21;4.75;;;2.50;;
32705;SDS011;19094;50.972;3.538;2023-02-28T13:31:24;7.55;;;2.45;;
32705;SDS011;19094;50.972;3.538;2023-02-28T13:36:23;15.02;;;3.38;;
32705;SDS011;19094;50.972;3.538;2023-02-28T13:38:57;4.90;;;2.58;;
32705;SDS011;19094;50.972;3.538;2023-02-28T13:49:18;10.43;;;3.22;;
32705;SDS011;19094;50.972;3.538;2023-02-28T14:05:32;4.53;;;2.63;;
32705;SDS011;19094;50.972;3.538;2023-02-28T14:08:03;4.88;;;2.63;;
32705;SDS011;19094;50.972;3.538;2023-02-28T14:10:41;29.65;;;4.38;;
32705;SDS011;19094;50.972;3.538;2023-02-28T14:13:14;15.45;;;3.50;;
32705;SDS011;19094;50.972;3.538;2023-02-28T14:16:16;5.40;;;2.67;;
32705;SDS011;19094;50.972;3.538;2023-02-28T14:18:49;7.10;;;2.85;;
32705;SDS011;19094;50.972;3.538;2023-02-28T14:21:33;5.70;;;3.20;;
32705;SDS011;19094;50.972;3.538;2023-02-28T14:24:16;4.45;;;2.78;;
32705;SDS011;19094;50.972;3.538;2023-02-28T14:38:13;5.45;;;2.85;;
32705;SDS011;19094;50.972;3.538;2023-02-28T14:40:46;8.40;;;3.58;;
32705;SDS011;19094;50.972;3.538;2023-02-28T14:43:21;3.92;;;2.85;;
32705;SDS011;19094;50.972;3.538;2023-02-28T14:45:57;8.40;;;3.25;;
32705;SDS011;19094;50.972;3.538;2023-02-28T14:48:25;5.30;;;4.13;;
32705;SDS011;19094;50.972;3.538;2023-02-28T14:51:00;4.95;;;3.58;;
32705;SDS011;19094;50.972;3.538;2023-02-28T14:53:30;12.45;;;4.32;;
32705;SDS011;19094;50.972;3.538;2023-02-28T14:56:02;6.97;;;4.35;;
32705;SDS011;19094;50.972;3.538;2023-02-28T14:58:29;9.60;;;4.30;;
32705;SDS011;19094;50.972;3.538;2023-02-28T15:01:00;11.05;;;4.00;;
32705;SDS011;19094;50.972;3.538;2023-02-28T15:03:38;4.78;;;3.38;;
32705;SDS011;19094;50.972;3.538;2023-02-28T15:06:11;8.60;;;3.53;;
32705;SDS011;19094;50.972;3.538;2023-02-28T15:08:39;7.60;;;3.53;;
32705;SDS011;19094;50.972;3.538;2023-02-28T15:11:11;3.05;;;2.75;;
32705;SDS011;19094;50.972;3.538;2023-02-28T15:13:45;8.63;;;3.45;;
32705;SDS011;19094;50.972;3.538;2023-02-28T15:18:56;7.35;;;3.40;;
32705;SDS011;19094;50.972;3.538;2023-02-28T15:21:27;7.47;;;3.55;;
32705;SDS011;19094;50.972;3.538;2023-02-28T15:24:05;4.18;;;3.05;;
32705;SDS011;19094;50.972;3.538;2023-02-28T15:26:34;5.95;;;3.45;;
32705;SDS011;19094;50.972;3.538;2023-02-28T15:29:07;5.90;;;3.63;;
32705;SDS011;19094;50.972;3.538;2023-02-28T15:31:46;8.70;;;4.40;;
32705;SDS011;19094;50.972;3.538;2023-02-28T15:34:38;7.73;;;5.00;;
32705;SDS011;19094;50.972;3.538;2023-02-28T15:39:55;23.00;;;8.10;;
32705;SDS011;19094;50.972;3.538;2023-02-28T15:42:27;12.10;;;5.60;;
32705;SDS011;19094;50.972;3.538;2023-02-28T15:44:54;11.35;;;4.78;;
32705;SDS011;19094;50.972;3.538;2023-02-28T15:47:24;6.50;;;3.90;;
32705;SDS011;19094;50.972;3.538;2023-02-28T15:49:52;10.52;;;3.70;;
32705;SDS011;19094;50.972;3.538;2023-02-28T15:52:26;8.93;;;4.13;;
32705;SDS011;19094;50.972;3.538;2023-02-28T15:57:52;12.38;;;4.60;;
32705;SDS011;19094;50.972;3.538;2023-02-28T16:00:24;12.63;;;4.28;;
32705;SDS011;19094;50.972;3.538;2023-02-28T16:02:51;16.85;;;4.32;;
32705;SDS011;19094;50.972;3.538;2023-02-28T16:05:29;6.95;;;4.07;;
32705;SDS011;19094;50.972;3.538;2023-02-28T16:08:00;5.95;;;4.10;;
32705;SDS011;19094;50.972;3.538;2023-02-28T16:10:36;9.30;;;4.22;;
32705;SDS011;19094;50.972;3.538;2023-02-28T16:13:02;6.72;;;4.13;;
32705;SDS011;19094;50.972;3.538;2023-02-28T16:15:28;7.35;;;4.60;;
32705;SDS011;19094;50.972;3.538;2023-02-28T16:17:57;7.28;;;3.83;;
32705;SDS011;19094;50.972;3.538;2023-02-28T16:20:28;6.50;;;4.07;;
32705;SDS011;19094;50.972;3.538;2023-02-28T16:22:55;5.78;;;3.85;;
32705;SDS011;19094;50.972;3.538;2023-02-28T16:25:28;8.20;;;3.63;;
32705;SDS011;19094;50.972;3.538;2023-02-28T16:28:08;7.43;;;3.35;;
32705;SDS011;19094;50.972;3.538;2023-02-28T16:30:42;6.30;;;4.22;;
32705;SDS011;19094;50.972;3.538;2023-02-28T16:33:08;7.90;;;4.70;;
32705;SDS011;19094;50.972;3.538;2023-02-28T16:35:34;5.90;;;3.97;;
32705;SDS011;19094;50.972;3.538;2023-02-28T16:38:00;10.73;;;3.90;;
32705;SDS011;19094;50.972;3.538;2023-02-28T16:40:26;6.65;;;3.63;;
32705;SDS011;19094;50.972;3.538;2023-02-28T16:42:54;6.47;;;4.28;;
32705;SDS011;19094;50.972;3.538;2023-02-28T16:45:25;6.72;;;4.13;;
32705;SDS011;19094;50.972;3.538;2023-02-28T16:47:52;7.50;;;4.20;;
32705;SDS011;19094;50.972;3.538;2023-02-28T16:52:48;7.00;;;4.18;;
32705;SDS011;19094;50.972;3.538;2023-02-28T16:55:17;6.65;;;4.68;;
32705;SDS011;19094;50.972;3.538;2023-02-28T16:57:43;17.90;;;6.90;;
32705;SDS011;19094;50.972;3.538;2023-02-28T17:00:12;24.88;;;14.55;;
32705;SDS011;19094;50.972;3.538;2023-02-28T17:02:38;18.67;;;12.38;;
32705;SDS011;19094;50.972;3.538;2023-02-28T17:05:05;22.92;;;8.88;;
32705;SDS011;19094;50.972;3.538;2023-02-28T17:07:31;19.35;;;6.45;;
32705;SDS011;19094;50.972;3.538;2023-02-28T17:09:57;12.73;;;6.60;;
32705;SDS011;19094;50.972;3.538;2023-02-28T17:12:24;17.10;;;6.90;;
32705;SDS011;19094;50.972;3.538;2023-02-28T17:14:51;12.32;;;6.63;;
32705;SDS011;19094;50.972;3.538;2023-02-28T17:17:17;13.88;;;7.13;;
32705;SDS011;19094;50.972;3.538;2023-02-28T17:19:46;16.83;;;8.35;;
32705;SDS011;19094;50.972;3.538;2023-02-28T17:22:12;21.17;;;8.75;;
32705;SDS011;19094;50.972;3.538;2023-02-28T17:24:37;23.05;;;9.43;;
32705;SDS011;19094;50.972;3.538;2023-02-28T17:27:03;24.90;;;11.48;;
32705;SDS011;19094;50.972;3.538;2023-02-28T17:29:29;99.20;;;18.85;;
32705;SDS011;19094;50.972;3.538;2023-02-28T17:31:55;28.08;;;11.45;;
32705;SDS011;19094;50.972;3.538;2023-02-28T17:34:20;19.15;;;8.10;;
32705;SDS011;19094;50.972;3.538;2023-02-28T17:36:47;13.80;;;7.57;;